sensor_id;sensor_type;location;lat;lon;timestamp;P1;durP1;ratioP1;P2;durP2;ratioP2
23175;SDS011;19910;42.652;23.332;2023-09-30T00:00:46;0.55;;;0.55;;
23175;SDS011;19910;42.652;23.332;2023-09-30T00:03:13;0.75;;;0.40;;
23175;SDS011;19910;42.652;23.332;2023-09-30T00:05:40;0.43;;;0.43;;
23175;SDS011;19910;42.652;23.332;2023-09-30T00:08:08;0.43;;;0.43;;
23175;SDS011;19910;42.652;23.332;2023-09-30T00:10:34;0.40;;;0.40;;
23175;SDS011;19910;42.652;23.332;2023-09-30T00:13:01;0.20;;;0.20;;
23175;SDS011;19910;42.652;23.332;2023-09-30T00:15:28;1.60;;;1.20;;
23175;SDS011;19910;42.652;23.332;2023-09-30T00:17:55;0.20;;;0.20;;
23175;SDS011;19910;42.652;23.332;2023-09-30T00:20:22;1.10;;;0.65;;
23175;SDS011;19910;42.652;23.332;2023-09-30T00:22:49;0.50;;;0.50;;
23175;SDS011;19910;42.652;23.332;2023-09-30T00:25:17;0.95;;;0.77;;
23175;SDS011;19910;42.652;23.332;2023-09-30T00:27:45;0.47;;;0.47;;
23175;SDS011;19910;42.652;23.332;2023-09-30T00:30:12;0.32;;;0.32;;
23175;SDS011;19910;42.652;23.332;2023-09-30T00:32:39;0.30;;;0.30;;
23175;SDS011;19910;42.652;23.332;2023-09-30T00:35:06;1.38;;;0.60;;
23175;SDS011;19910;42.652;23.332;2023-09-30T00:37:36;0.50;;;0.30;;
23175;SDS011;19910;42.652;23.332;2023-09-30T00:40:03;0.20;;;0.20;;
23175;SDS011;19910;42.652;23.332;2023-09-30T00:42:32;1.13;;;0.90;;
23175;SDS011;19910;42.652;23.332;2023-09-30T00:44:58;0.40;;;0.40;;
23175;SDS011;19910;42.652;23.332;2023-09-30T00:47:25;0.57;;;0.57;;
23175;SDS011;19910;42.652;23.332;2023-09-30T00:49:52;1.27;;;1.08;;
23175;SDS011;19910;42.652;23.332;2023-09-30T00:52:19;0.43;;;0.43;;
23175;SDS011;19910;42.652;23.332;2023-09-30T00:54:46;0.45;;;0.45;;
23175;SDS011;19910;42.652;23.332;2023-09-30T00:57:15;0.65;;;0.45;;
23175;SDS011;19910;42.652;23.332;2023-09-30T00:59:46;0.20;;;0.20;;
23175;SDS011;19910;42.652;23.332;2023-09-30T01:02:14;0.20;;;0.20;;
23175;SDS011;19910;42.652;23.332;2023-09-30T01:04:42;1.58;;;1.13;;
23175;SDS011;19910;42.652;23.332;2023-09-30T01:07:09;2.45;;;0.75;;
23175;SDS011;19910;42.652;23.332;2023-09-30T01:09:36;0.52;;;0.52;;
23175;SDS011;19910;42.652;23.332;2023-09-30T01:12:04;0.57;;;0.55;;
23175;SDS011;19910;42.652;23.332;2023-09-30T01:14:31;0.43;;;0.30;;
23175;SDS011;19910;42.652;23.332;2023-09-30T01:17:01;0.30;;;0.30;;
23175;SDS011;19910;42.652;23.332;2023-09-30T01:19:29;0.90;;;0.75;;
23175;SDS011;19910;42.652;23.332;2023-09-30T01:21:58;2.58;;;1.60;;
23175;SDS011;19910;42.652;23.332;2023-09-30T01:24:27;0.55;;;0.55;;
23175;SDS011;19910;42.652;23.332;2023-09-30T01:26:53;0.38;;;0.38;;
23175;SDS011;19910;42.652;23.332;2023-09-30T01:29:21;0.85;;;0.65;;
23175;SDS011;19910;42.652;23.332;2023-09-30T01:31:48;1.48;;;1.30;;
23175;SDS011;19910;42.652;23.332;2023-09-30T01:34:15;0.40;;;0.40;;
23175;SDS011;19910;42.652;23.332;2023-09-30T01:36:42;0.50;;;0.50;;
23175;SDS011;19910;42.652;23.332;2023-09-30T01:39:10;0.20;;;0.20;;
23175;SDS011;19910;42.652;23.332;2023-09-30T01:41:38;0.30;;;0.30;;
23175;SDS011;19910;42.652;23.332;2023-09-30T01:44:05;0.73;;;0.73;;
23175;SDS011;19910;42.652;23.332;2023-09-30T01:46:32;0.55;;;0.55;;
23175;SDS011;19910;42.652;23.332;2023-09-30T01:48:59;0.25;;;0.25;;
23175;SDS011;19910;42.652;23.332;2023-09-30T01:51:26;0.80;;;0.80;;
23175;SDS011;19910;42.652;23.332;2023-09-30T01:53:54;0.25;;;0.25;;
23175;SDS011;19910;42.652;23.332;2023-09-30T01:56:22;0.75;;;0.75;;
23175;SDS011;19910;42.652;23.332;2023-09-30T01:58:49;0.28;;;0.28;;
23175;SDS011;19910;42.652;23.332;2023-09-30T02:01:16;2.17;;;1.00;;
23175;SDS011;19910;42.652;23.332;2023-09-30T02:03:42;0.40;;;0.40;;
23175;SDS011;19910;42.652;23.332;2023-09-30T02:06:09;4.68;;;0.88;;
23175;SDS011;19910;42.652;23.332;2023-09-30T02:08:36;0.28;;;0.28;;
23175;SDS011;19910;42.652;23.332;2023-09-30T02:11:03;0.45;;;0.45;;
23175;SDS011;19910;42.652;23.332;2023-09-30T02:13:32;0.85;;;0.70;;
23175;SDS011;19910;42.652;23.332;2023-09-30T02:16:00;0.35;;;0.35;;
23175;SDS011;19910;42.652;23.332;2023-09-30T02:18:26;1.35;;;0.60;;
23175;SDS011;19910;42.652;23.332;2023-09-30T02:20:53;0.30;;;0.30;;
23175;SDS011;19910;42.652;23.332;2023-09-30T02:23:20;0.60;;;0.60;;
23175;SDS011;19910;42.652;23.332;2023-09-30T02:25:47;0.20;;;0.20;;
23175;SDS011;19910;42.652;23.332;2023-09-30T02:28:14;0.28;;;0.28;;
23175;SDS011;19910;42.652;23.332;2023-09-30T02:30:42;0.55;;;0.55;;
23175;SDS011;19910;42.652;23.332;2023-09-30T02:33:09;0.75;;;0.40;;
23175;SDS011;19910;42.652;23.332;2023-09-30T02:35:36;0.75;;;0.70;;
23175;SDS011;19910;42.652;23.332;2023-09-30T02:38:04;0.22;;;0.22;;
23175;SDS011;19910;42.652;23.332;2023-09-30T02:40:31;0.50;;;0.50;;
23175;SDS011;19910;42.652;23.332;2023-09-30T02:42:58;0.90;;;0.90;;
23175;SDS011;19910;42.652;23.332;2023-09-30T02:45:25;0.17;;;0.17;;
23175;SDS011;19910;42.652;23.332;2023-09-30T02:47:53;0.68;;;0.60;;
23175;SDS011;19910;42.652;23.332;2023-09-30T02:50:20;0.60;;;0.50;;
23175;SDS011;19910;42.652;23.332;2023-09-30T02:52:47;0.50;;;0.50;;
23175;SDS011;19910;42.652;23.332;2023-09-30T02:55:15;0.35;;;0.35;;
23175;SDS011;19910;42.652;23.332;2023-09-30T02:57:41;1.38;;;0.70;;
23175;SDS011;19910;42.652;23.332;2023-09-30T03:00:09;0.40;;;0.38;;
23175;SDS011;19910;42.652;23.332;2023-09-30T03:02:46;0.52;;;0.20;;
23175;SDS011;19910;42.652;23.332;2023-09-30T03:05:14;0.52;;;0.52;;
23175;SDS011;19910;42.652;23.332;2023-09-30T03:07:41;0.63;;;0.63;;
23175;SDS011;19910;42.652;23.332;2023-09-30T03:10:08;0.25;;;0.25;;
23175;SDS011;19910;42.652;23.332;2023-09-30T03:12:35;0.20;;;0.20;;
23175;SDS011;19910;42.652;23.332;2023-09-30T03:15:02;0.20;;;0.20;;
23175;SDS011;19910;42.652;23.332;2023-09-30T03:17:30;1.40;;;1.30;;
23175;SDS011;19910;42.652;23.332;2023-09-30T03:19:57;4.32;;;2.33;;
23175;SDS011;19910;42.652;23.332;2023-09-30T03:22:26;1.05;;;0.43;;
23175;SDS011;19910;42.652;23.332;2023-09-30T03:24:54;0.38;;;0.30;;
23175;SDS011;19910;42.652;23.332;2023-09-30T03:27:22;0.45;;;0.43;;
23175;SDS011;19910;42.652;23.332;2023-09-30T03:29:48;0.40;;;0.40;;
23175;SDS011;19910;42.652;23.332;2023-09-30T03:32:15;0.85;;;0.85;;
23175;SDS011;19910;42.652;23.332;2023-09-30T03:34:42;0.60;;;0.60;;
23175;SDS011;19910;42.652;23.332;2023-09-30T03:37:11;0.55;;;0.55;;
23175;SDS011;19910;42.652;23.332;2023-09-30T03:39:40;0.52;;;0.52;;
23175;SDS011;19910;42.652;23.332;2023-09-30T03:42:07;0.95;;;0.95;;
23175;SDS011;19910;42.652;23.332;2023-09-30T03:44:36;0.20;;;0.20;;
23175;SDS011;19910;42.652;23.332;2023-09-30T03:47:04;0.20;;;0.20;;
23175;SDS011;19910;42.652;23.332;2023-09-30T03:49:32;0.20;;;0.20;;
23175;SDS011;19910;42.652;23.332;2023-09-30T03:51:59;0.20;;;0.20;;
23175;SDS011;19910;42.652;23.332;2023-09-30T03:54:26;0.20;;;0.20;;
23175;SDS011;19910;42.652;23.332;2023-09-30T03:56:55;0.63;;;0.57;;
23175;SDS011;19910;42.652;23.332;2023-09-30T03:59:21;0.32;;;0.32;;
23175;SDS011;19910;42.652;23.332;2023-09-30T04:01:48;1.17;;;0.40;;
23175;SDS011;19910;42.652;23.332;2023-09-30T04:04:15;1.02;;;1.02;;
23175;SDS011;19910;42.652;23.332;2023-09-30T04:06:42;0.47;;;0.47;;
23175;SDS011;19910;42.652;23.332;2023-09-30T04:09:08;0.20;;;0.20;;
23175;SDS011;19910;42.652;23.332;2023-09-30T04:11:37;0.38;;;0.38;;
23175;SDS011;19910;42.652;23.332;2023-09-30T04:14:06;0.50;;;0.50;;
23175;SDS011;19910;42.652;23.332;2023-09-30T04:16:33;0.40;;;0.40;;
23175;SDS011;19910;42.652;23.332;2023-09-30T04:19:02;0.43;;;0.43;;
23175;SDS011;19910;42.652;23.332;2023-09-30T04:21:29;0.28;;;0.28;;
23175;SDS011;19910;42.652;23.332;2023-09-30T04:23:59;2.95;;;1.38;;
23175;SDS011;19910;42.652;23.332;2023-09-30T04:26:26;0.93;;;0.85;;
23175;SDS011;19910;42.652;23.332;2023-09-30T04:28:53;0.82;;;0.82;;
23175;SDS011;19910;42.652;23.332;2023-09-30T04:31:22;0.43;;;0.43;;
23175;SDS011;19910;42.652;23.332;2023-09-30T04:33:48;0.43;;;0.38;;
23175;SDS011;19910;42.652;23.332;2023-09-30T04:36:17;0.52;;;0.52;;
23175;SDS011;19910;42.652;23.332;2023-09-30T04:38:44;0.30;;;0.30;;
23175;SDS011;19910;42.652;23.332;2023-09-30T04:41:12;0.38;;;0.38;;
23175;SDS011;19910;42.652;23.332;2023-09-30T04:43:40;1.40;;;0.55;;
23175;SDS011;19910;42.652;23.332;2023-09-30T04:46:08;5.65;;;2.63;;
23175;SDS011;19910;42.652;23.332;2023-09-30T04:48:39;3.30;;;2.15;;
23175;SDS011;19910;42.652;23.332;2023-09-30T04:51:06;5.65;;;3.03;;
23175;SDS011;19910;42.652;23.332;2023-09-30T04:53:33;0.75;;;0.70;;
23175;SDS011;19910;42.652;23.332;2023-09-30T04:56:00;0.80;;;0.80;;
23175;SDS011;19910;42.652;23.332;2023-09-30T04:58:28;0.45;;;0.45;;
23175;SDS011;19910;42.652;23.332;2023-09-30T05:00:56;4.45;;;0.95;;
23175;SDS011;19910;42.652;23.332;2023-09-30T05:03:23;0.60;;;0.60;;
23175;SDS011;19910;42.652;23.332;2023-09-30T05:05:52;0.50;;;0.50;;
23175;SDS011;19910;42.652;23.332;2023-09-30T05:08:20;0.85;;;0.73;;
23175;SDS011;19910;42.652;23.332;2023-09-30T05:10:48;1.48;;;1.00;;
23175;SDS011;19910;42.652;23.332;2023-09-30T05:13:15;0.82;;;0.65;;
23175;SDS011;19910;42.652;23.332;2023-09-30T05:15:42;4.45;;;1.48;;
23175;SDS011;19910;42.652;23.332;2023-09-30T05:18:09;0.68;;;0.60;;
23175;SDS011;19910;42.652;23.332;2023-09-30T05:20:36;1.00;;;0.60;;
23175;SDS011;19910;42.652;23.332;2023-09-30T05:23:05;1.90;;;0.85;;
23175;SDS011;19910;42.652;23.332;2023-09-30T05:25:33;2.40;;;1.70;;
23175;SDS011;19910;42.652;23.332;2023-09-30T05:27:59;2.25;;;1.48;;
23175;SDS011;19910;42.652;23.332;2023-09-30T05:30:25;0.43;;;0.43;;
23175;SDS011;19910;42.652;23.332;2023-09-30T05:32:51;1.67;;;0.75;;
23175;SDS011;19910;42.652;23.332;2023-09-30T05:35:19;4.00;;;2.47;;
23175;SDS011;19910;42.652;23.332;2023-09-30T05:37:47;2.47;;;2.20;;
23175;SDS011;19910;42.652;23.332;2023-09-30T05:40:18;5.82;;;2.40;;
23175;SDS011;19910;42.652;23.332;2023-09-30T05:42:50;4.72;;;2.25;;
23175;SDS011;19910;42.652;23.332;2023-09-30T05:45:17;3.05;;;2.10;;
23175;SDS011;19910;42.652;23.332;2023-09-30T05:47:44;3.47;;;2.10;;
23175;SDS011;19910;42.652;23.332;2023-09-30T05:50:11;4.68;;;2.53;;
23175;SDS011;19910;42.652;23.332;2023-09-30T05:52:41;2.72;;;2.10;;
23175;SDS011;19910;42.652;23.332;2023-09-30T05:55:08;3.55;;;1.70;;
23175;SDS011;19910;42.652;23.332;2023-09-30T05:57:37;3.50;;;2.13;;
23175;SDS011;19910;42.652;23.332;2023-09-30T06:00:04;3.13;;;2.17;;
23175;SDS011;19910;42.652;23.332;2023-09-30T06:02:45;3.28;;;2.20;;
23175;SDS011;19910;42.652;23.332;2023-09-30T06:05:13;3.13;;;2.70;;
23175;SDS011;19910;42.652;23.332;2023-09-30T06:07:41;2.63;;;2.03;;
23175;SDS011;19910;42.652;23.332;2023-09-30T06:10:10;4.25;;;2.60;;
23175;SDS011;19910;42.652;23.332;2023-09-30T06:12:39;2.88;;;2.17;;
23175;SDS011;19910;42.652;23.332;2023-09-30T06:15:07;3.35;;;2.25;;
23175;SDS011;19910;42.652;23.332;2023-09-30T06:17:35;3.67;;;2.67;;
23175;SDS011;19910;42.652;23.332;2023-09-30T06:20:04;4.03;;;2.38;;
23175;SDS011;19910;42.652;23.332;2023-09-30T06:22:34;3.75;;;2.35;;
23175;SDS011;19910;42.652;23.332;2023-09-30T06:25:01;4.50;;;2.45;;
23175;SDS011;19910;42.652;23.332;2023-09-30T06:27:29;3.95;;;2.28;;
23175;SDS011;19910;42.652;23.332;2023-09-30T06:29:57;2.65;;;2.20;;
23175;SDS011;19910;42.652;23.332;2023-09-30T06:32:27;3.47;;;2.50;;
23175;SDS011;19910;42.652;23.332;2023-09-30T06:34:54;3.22;;;2.20;;
23175;SDS011;19910;42.652;23.332;2023-09-30T06:37:21;4.18;;;2.00;;
23175;SDS011;19910;42.652;23.332;2023-09-30T06:39:48;3.53;;;2.47;;
23175;SDS011;19910;42.652;23.332;2023-09-30T06:42:15;3.58;;;1.90;;
23175;SDS011;19910;42.652;23.332;2023-09-30T06:44:42;3.58;;;2.15;;
23175;SDS011;19910;42.652;23.332;2023-09-30T06:47:10;2.95;;;2.10;;
23175;SDS011;19910;42.652;23.332;2023-09-30T06:49:37;3.25;;;2.30;;
23175;SDS011;19910;42.652;23.332;2023-09-30T06:52:07;2.53;;;1.88;;
23175;SDS011;19910;42.652;23.332;2023-09-30T06:54:34;2.65;;;1.85;;
23175;SDS011;19910;42.652;23.332;2023-09-30T06:57:01;4.82;;;2.88;;
23175;SDS011;19910;42.652;23.332;2023-09-30T06:59:28;2.90;;;2.17;;
23175;SDS011;19910;42.652;23.332;2023-09-30T07:01:55;1.65;;;1.40;;
23175;SDS011;19910;42.652;23.332;2023-09-30T07:04:23;2.25;;;1.52;;
23175;SDS011;19910;42.652;23.332;2023-09-30T07:06:52;2.50;;;1.63;;
23175;SDS011;19910;42.652;23.332;2023-09-30T07:09:19;2.10;;;1.42;;
23175;SDS011;19910;42.652;23.332;2023-09-30T07:11:46;1.73;;;1.30;;
23175;SDS011;19910;42.652;23.332;2023-09-30T07:14:14;3.67;;;1.35;;
23175;SDS011;19910;42.652;23.332;2023-09-30T07:16:41;2.40;;;1.40;;
23175;SDS011;19910;42.652;23.332;2023-09-30T07:19:08;2.45;;;2.00;;
23175;SDS011;19910;42.652;23.332;2023-09-30T07:21:36;2.00;;;1.27;;
23175;SDS011;19910;42.652;23.332;2023-09-30T07:24:04;2.65;;;1.63;;
23175;SDS011;19910;42.652;23.332;2023-09-30T07:26:31;2.08;;;1.58;;
23175;SDS011;19910;42.652;23.332;2023-09-30T07:28:58;2.17;;;1.60;;
23175;SDS011;19910;42.652;23.332;2023-09-30T07:31:25;1.48;;;1.13;;
23175;SDS011;19910;42.652;23.332;2023-09-30T07:33:52;6.18;;;1.70;;
23175;SDS011;19910;42.652;23.332;2023-09-30T07:36:19;3.10;;;1.73;;
23175;SDS011;19910;42.652;23.332;2023-09-30T07:38:47;4.32;;;1.40;;
23175;SDS011;19910;42.652;23.332;2023-09-30T07:41:14;1.73;;;1.30;;
23175;SDS011;19910;42.652;23.332;2023-09-30T07:43:42;1.98;;;1.48;;
23175;SDS011;19910;42.652;23.332;2023-09-30T07:46:08;2.47;;;1.70;;
23175;SDS011;19910;42.652;23.332;2023-09-30T07:48:35;2.65;;;1.48;;
23175;SDS011;19910;42.652;23.332;2023-09-30T07:51:04;1.90;;;1.52;;
23175;SDS011;19910;42.652;23.332;2023-09-30T07:53:34;2.20;;;1.38;;
23175;SDS011;19910;42.652;23.332;2023-09-30T07:56:03;4.15;;;1.73;;
23175;SDS011;19910;42.652;23.332;2023-09-30T07:58:30;2.00;;;1.30;;
23175;SDS011;19910;42.652;23.332;2023-09-30T08:00:59;2.15;;;1.35;;
23175;SDS011;19910;42.652;23.332;2023-09-30T08:03:27;1.63;;;1.20;;
23175;SDS011;19910;42.652;23.332;2023-09-30T08:05:56;2.50;;;1.48;;
23175;SDS011;19910;42.652;23.332;2023-09-30T08:08:23;1.88;;;1.10;;
23175;SDS011;19910;42.652;23.332;2023-09-30T08:10:50;2.25;;;1.30;;
23175;SDS011;19910;42.652;23.332;2023-09-30T08:13:22;1.55;;;1.20;;
23175;SDS011;19910;42.652;23.332;2023-09-30T08:15:49;2.63;;;1.38;;
23175;SDS011;19910;42.652;23.332;2023-09-30T08:18:18;2.35;;;1.50;;
23175;SDS011;19910;42.652;23.332;2023-09-30T08:20:45;2.00;;;1.60;;
23175;SDS011;19910;42.652;23.332;2023-09-30T08:23:12;2.60;;;1.58;;
23175;SDS011;19910;42.652;23.332;2023-09-30T08:25:39;2.20;;;1.88;;
23175;SDS011;19910;42.652;23.332;2023-09-30T08:28:06;1.77;;;1.67;;
23175;SDS011;19910;42.652;23.332;2023-09-30T08:30:36;1.98;;;1.55;;
23175;SDS011;19910;42.652;23.332;2023-09-30T08:33:03;2.13;;;1.52;;
23175;SDS011;19910;42.652;23.332;2023-09-30T08:35:34;2.47;;;1.40;;
23175;SDS011;19910;42.652;23.332;2023-09-30T08:38:02;2.10;;;1.48;;
23175;SDS011;19910;42.652;23.332;2023-09-30T08:40:29;2.35;;;1.58;;
23175;SDS011;19910;42.652;23.332;2023-09-30T08:42:56;3.50;;;2.03;;
23175;SDS011;19910;42.652;23.332;2023-09-30T08:45:23;3.28;;;2.00;;
23175;SDS011;19910;42.652;23.332;2023-09-30T08:47:52;2.53;;;1.90;;
23175;SDS011;19910;42.652;23.332;2023-09-30T08:50:19;1.73;;;1.40;;
23175;SDS011;19910;42.652;23.332;2023-09-30T08:52:47;2.17;;;1.98;;
23175;SDS011;19910;42.652;23.332;2023-09-30T08:55:15;3.35;;;2.08;;
23175;SDS011;19910;42.652;23.332;2023-09-30T08:57:42;2.80;;;1.98;;
23175;SDS011;19910;42.652;23.332;2023-09-30T09:00:10;2.70;;;1.75;;
23175;SDS011;19910;42.652;23.332;2023-09-30T09:02:38;4.10;;;2.20;;
23175;SDS011;19910;42.652;23.332;2023-09-30T09:05:07;3.35;;;2.53;;
23175;SDS011;19910;42.652;23.332;2023-09-30T09:07:36;2.90;;;2.10;;
23175;SDS011;19910;42.652;23.332;2023-09-30T09:10:04;4.38;;;2.28;;
23175;SDS011;19910;42.652;23.332;2023-09-30T09:12:33;3.00;;;2.50;;
23175;SDS011;19910;42.652;23.332;2023-09-30T09:15:01;3.95;;;2.47;;
23175;SDS011;19910;42.652;23.332;2023-09-30T09:17:39;4.03;;;2.42;;
23175;SDS011;19910;42.652;23.332;2023-09-30T09:20:10;4.97;;;2.40;;
23175;SDS011;19910;42.652;23.332;2023-09-30T09:22:39;2.97;;;2.00;;
23175;SDS011;19910;42.652;23.332;2023-09-30T09:25:08;3.03;;;2.10;;
23175;SDS011;19910;42.652;23.332;2023-09-30T09:27:36;2.42;;;2.03;;
23175;SDS011;19910;42.652;23.332;2023-09-30T09:30:16;3.58;;;2.38;;
23175;SDS011;19910;42.652;23.332;2023-09-30T09:33:00;4.05;;;2.17;;
23175;SDS011;19910;42.652;23.332;2023-09-30T09:35:32;2.60;;;2.13;;
23175;SDS011;19910;42.652;23.332;2023-09-30T09:38:00;3.15;;;2.10;;
23175;SDS011;19910;42.652;23.332;2023-09-30T09:40:29;4.55;;;2.10;;
23175;SDS011;19910;42.652;23.332;2023-09-30T09:42:58;2.50;;;1.88;;
23175;SDS011;19910;42.652;23.332;2023-09-30T09:45:30;3.03;;;1.83;;
23175;SDS011;19910;42.652;23.332;2023-09-30T09:47:59;2.78;;;1.98;;
23175;SDS011;19910;42.652;23.332;2023-09-30T09:50:29;2.20;;;1.77;;
23175;SDS011;19910;42.652;23.332;2023-09-30T09:52:58;3.35;;;2.28;;
23175;SDS011;19910;42.652;23.332;2023-09-30T09:55:26;2.67;;;1.80;;
23175;SDS011;19910;42.652;23.332;2023-09-30T09:57:55;2.05;;;1.40;;
23175;SDS011;19910;42.652;23.332;2023-09-30T10:00:24;1.63;;;1.20;;
23175;SDS011;19910;42.652;23.332;2023-09-30T10:02:52;1.10;;;1.00;;
23175;SDS011;19910;42.652;23.332;2023-09-30T10:05:20;1.75;;;1.50;;
23175;SDS011;19910;42.652;23.332;2023-09-30T10:07:51;3.55;;;1.38;;
23175;SDS011;19910;42.652;23.332;2023-09-30T10:10:24;2.67;;;1.48;;
23175;SDS011;19910;42.652;23.332;2023-09-30T10:12:52;3.28;;;1.50;;
23175;SDS011;19910;42.652;23.332;2023-09-30T10:15:35;2.88;;;1.75;;
23175;SDS011;19910;42.652;23.332;2023-09-30T10:18:09;2.42;;;1.50;;
23175;SDS011;19910;42.652;23.332;2023-09-30T10:20:38;2.90;;;1.30;;
23175;SDS011;19910;42.652;23.332;2023-09-30T10:23:20;2.60;;;1.60;;
23175;SDS011;19910;42.652;23.332;2023-09-30T10:25:49;1.83;;;1.50;;
23175;SDS011;19910;42.652;23.332;2023-09-30T10:28:35;1.80;;;1.30;;
23175;SDS011;19910;42.652;23.332;2023-09-30T10:31:07;1.70;;;1.20;;
23175;SDS011;19910;42.652;23.332;2023-09-30T10:33:34;2.65;;;1.27;;
23175;SDS011;19910;42.652;23.332;2023-09-30T10:36:01;1.90;;;1.33;;
23175;SDS011;19910;42.652;23.332;2023-09-30T10:38:40;1.52;;;1.10;;
23175;SDS011;19910;42.652;23.332;2023-09-30T10:41:06;1.48;;;1.20;;
23175;SDS011;19910;42.652;23.332;2023-09-30T10:43:35;1.45;;;1.05;;
23175;SDS011;19910;42.652;23.332;2023-09-30T10:46:04;1.40;;;1.30;;
23175;SDS011;19910;42.652;23.332;2023-09-30T10:51:56;5.47;;;1.13;;
23175;SDS011;19910;42.652;23.332;2023-09-30T10:54:27;1.52;;;1.30;;
23175;SDS011;19910;42.652;23.332;2023-09-30T10:56:55;2.15;;;1.30;;
23175;SDS011;19910;42.652;23.332;2023-09-30T10:59:24;3.15;;;1.08;;
23175;SDS011;19910;42.652;23.332;2023-09-30T11:01:52;1.00;;;0.90;;
23175;SDS011;19910;42.652;23.332;2023-09-30T11:04:20;1.38;;;1.02;;
23175;SDS011;19910;42.652;23.332;2023-09-30T11:06:47;1.30;;;1.00;;
23175;SDS011;19910;42.652;23.332;2023-09-30T11:09:17;1.38;;;0.93;;
23175;SDS011;19910;42.652;23.332;2023-09-30T11:11:48;1.48;;;1.02;;
23175;SDS011;19910;42.652;23.332;2023-09-30T11:14:16;1.92;;;1.73;;
23175;SDS011;19910;42.652;23.332;2023-09-30T11:16:44;1.45;;;0.93;;
23175;SDS011;19910;42.652;23.332;2023-09-30T11:19:11;1.42;;;1.00;;
23175;SDS011;19910;42.652;23.332;2023-09-30T11:21:41;2.45;;;1.83;;
23175;SDS011;19910;42.652;23.332;2023-09-30T11:24:08;1.50;;;1.15;;
23175;SDS011;19910;42.652;23.332;2023-09-30T11:26:36;1.05;;;0.95;;
23175;SDS011;19910;42.652;23.332;2023-09-30T11:29:09;1.25;;;1.10;;
23175;SDS011;19910;42.652;23.332;2023-09-30T11:31:37;1.52;;;1.20;;
23175;SDS011;19910;42.652;23.332;2023-09-30T11:34:04;1.58;;;1.20;;
23175;SDS011;19910;42.652;23.332;2023-09-30T11:36:33;1.08;;;0.98;;
23175;SDS011;19910;42.652;23.332;2023-09-30T11:39:01;1.35;;;1.05;;
23175;SDS011;19910;42.652;23.332;2023-09-30T11:41:34;3.22;;;1.38;;
23175;SDS011;19910;42.652;23.332;2023-09-30T11:44:04;3.80;;;1.58;;
23175;SDS011;19910;42.652;23.332;2023-09-30T11:46:48;1.75;;;1.00;;
23175;SDS011;19910;42.652;23.332;2023-09-30T11:49:27;1.23;;;1.08;;
23175;SDS011;19910;42.652;23.332;2023-09-30T11:51:56;3.38;;;1.10;;
23175;SDS011;19910;42.652;23.332;2023-09-30T11:54:28;1.50;;;1.27;;
23175;SDS011;19910;42.652;23.332;2023-09-30T11:56:58;1.73;;;1.10;;
23175;SDS011;19910;42.652;23.332;2023-09-30T11:59:26;1.70;;;1.15;;
23175;SDS011;19910;42.652;23.332;2023-09-30T12:01:54;1.73;;;1.25;;
23175;SDS011;19910;42.652;23.332;2023-09-30T12:04:21;1.40;;;1.13;;
23175;SDS011;19910;42.652;23.332;2023-09-30T12:06:48;1.60;;;1.45;;
23175;SDS011;19910;42.652;23.332;2023-09-30T12:09:15;1.30;;;1.15;;
23175;SDS011;19910;42.652;23.332;2023-09-30T12:11:48;1.48;;;1.20;;
23175;SDS011;19910;42.652;23.332;2023-09-30T12:14:15;1.58;;;1.25;;
23175;SDS011;19910;42.652;23.332;2023-09-30T12:16:42;4.25;;;2.05;;
23175;SDS011;19910;42.652;23.332;2023-09-30T12:19:12;1.73;;;1.10;;
23175;SDS011;19910;42.652;23.332;2023-09-30T12:21:40;1.15;;;1.00;;
23175;SDS011;19910;42.652;23.332;2023-09-30T12:24:08;2.03;;;1.35;;
23175;SDS011;19910;42.652;23.332;2023-09-30T12:26:36;1.83;;;1.25;;
23175;SDS011;19910;42.652;23.332;2023-09-30T12:29:05;2.30;;;1.33;;
23175;SDS011;19910;42.652;23.332;2023-09-30T12:31:34;1.60;;;1.20;;
23175;SDS011;19910;42.652;23.332;2023-09-30T12:34:01;1.20;;;1.10;;
23175;SDS011;19910;42.652;23.332;2023-09-30T12:36:29;1.83;;;1.15;;
23175;SDS011;19910;42.652;23.332;2023-09-30T12:38:57;2.60;;;1.67;;
23175;SDS011;19910;42.652;23.332;2023-09-30T12:41:24;2.38;;;1.20;;
23175;SDS011;19910;42.652;23.332;2023-09-30T12:43:51;1.55;;;1.45;;
23175;SDS011;19910;42.652;23.332;2023-09-30T12:46:18;2.38;;;1.50;;
23175;SDS011;19910;42.652;23.332;2023-09-30T12:48:45;1.60;;;1.30;;
23175;SDS011;19910;42.652;23.332;2023-09-30T12:51:13;1.48;;;1.20;;
23175;SDS011;19910;42.652;23.332;2023-09-30T12:53:42;1.88;;;1.63;;
23175;SDS011;19910;42.652;23.332;2023-09-30T12:56:08;2.40;;;1.73;;
23175;SDS011;19910;42.652;23.332;2023-09-30T12:58:35;4.55;;;1.38;;
23175;SDS011;19910;42.652;23.332;2023-09-30T13:01:03;2.30;;;1.58;;
23175;SDS011;19910;42.652;23.332;2023-09-30T13:03:31;2.80;;;1.25;;
23175;SDS011;19910;42.652;23.332;2023-09-30T13:05:58;2.13;;;1.35;;
23175;SDS011;19910;42.652;23.332;2023-09-30T13:08:25;2.28;;;1.42;;
23175;SDS011;19910;42.652;23.332;2023-09-30T13:11:00;2.35;;;1.35;;
23175;SDS011;19910;42.652;23.332;2023-09-30T13:13:28;2.78;;;1.60;;
23175;SDS011;19910;42.652;23.332;2023-09-30T13:15:56;0.57;;;0.52;;
23175;SDS011;19910;42.652;23.332;2023-09-30T13:18:23;2.63;;;1.17;;
23175;SDS011;19910;42.652;23.332;2023-09-30T13:20:50;2.85;;;1.50;;
23175;SDS011;19910;42.652;23.332;2023-09-30T13:23:18;1.35;;;1.20;;
23175;SDS011;19910;42.652;23.332;2023-09-30T13:25:45;1.20;;;1.10;;
23175;SDS011;19910;42.652;23.332;2023-09-30T13:28:14;1.50;;;1.17;;
23175;SDS011;19910;42.652;23.332;2023-09-30T13:30:41;1.98;;;1.35;;
23175;SDS011;19910;42.652;23.332;2023-09-30T13:33:08;1.75;;;1.27;;
23175;SDS011;19910;42.652;23.332;2023-09-30T13:35:35;2.70;;;1.70;;
23175;SDS011;19910;42.652;23.332;2023-09-30T13:38:03;2.65;;;1.50;;
23175;SDS011;19910;42.652;23.332;2023-09-30T13:40:34;2.63;;;1.20;;
23175;SDS011;19910;42.652;23.332;2023-09-30T13:43:01;1.92;;;1.33;;
23175;SDS011;19910;42.652;23.332;2023-09-30T13:45:36;2.92;;;1.75;;
23175;SDS011;19910;42.652;23.332;2023-09-30T13:48:03;3.10;;;1.48;;
23175;SDS011;19910;42.652;23.332;2023-09-30T13:50:31;2.08;;;1.55;;
23175;SDS011;19910;42.652;23.332;2023-09-30T13:52:59;3.10;;;1.55;;
23175;SDS011;19910;42.652;23.332;2023-09-30T13:55:27;2.20;;;1.50;;
23175;SDS011;19910;42.652;23.332;2023-09-30T13:57:54;2.30;;;1.45;;
23175;SDS011;19910;42.652;23.332;2023-09-30T14:00:21;1.75;;;1.15;;
23175;SDS011;19910;42.652;23.332;2023-09-30T14:02:49;2.80;;;1.50;;
23175;SDS011;19910;42.652;23.332;2023-09-30T14:05:16;3.30;;;1.58;;
23175;SDS011;19910;42.652;23.332;2023-09-30T14:07:45;2.75;;;1.48;;
23175;SDS011;19910;42.652;23.332;2023-09-30T14:10:11;1.90;;;1.40;;
23175;SDS011;19910;42.652;23.332;2023-09-30T14:12:38;4.20;;;1.50;;
23175;SDS011;19910;42.652;23.332;2023-09-30T14:15:06;1.67;;;1.40;;
23175;SDS011;19910;42.652;23.332;2023-09-30T14:17:35;2.20;;;1.40;;
23175;SDS011;19910;42.652;23.332;2023-09-30T14:20:03;1.88;;;1.38;;
23175;SDS011;19910;42.652;23.332;2023-09-30T14:22:31;1.55;;;1.15;;
23175;SDS011;19910;42.652;23.332;2023-09-30T14:24:58;1.25;;;0.85;;
23175;SDS011;19910;42.652;23.332;2023-09-30T14:27:25;6.97;;;2.28;;
23175;SDS011;19910;42.652;23.332;2023-09-30T14:29:52;2.13;;;1.20;;
23175;SDS011;19910;42.652;23.332;2023-09-30T14:32:19;1.30;;;1.17;;
23175;SDS011;19910;42.652;23.332;2023-09-30T14:34:46;0.98;;;0.93;;
23175;SDS011;19910;42.652;23.332;2023-09-30T14:37:14;1.60;;;1.23;;
23175;SDS011;19910;42.652;23.332;2023-09-30T14:39:42;0.40;;;0.40;;
23175;SDS011;19910;42.652;23.332;2023-09-30T14:42:09;2.05;;;0.85;;